sensor_id;sensor_type;location;lat;lon;timestamp;temperature;humidity
4578;DHT22;2301;47.354;8.528;2023-06-14T00:01:31;22.90;37.80
4578;DHT22;2301;47.354;8.528;2023-06-14T00:04:00;22.90;37.20
4578;DHT22;2301;47.354;8.528;2023-06-14T00:08:54;22.80;37.70
4578;DHT22;2301;47.354;8.528;2023-06-14T00:11:21;22.80;37.30
4578;DHT22;2301;47.354;8.528;2023-06-14T00:13:49;22.90;37.80
4578;DHT22;2301;47.354;8.528;2023-06-14T00:16:16;22.90;37.40
4578;DHT22;2301;47.354;8.528;2023-06-14T00:18:44;22.90;37.10
4578;DHT22;2301;47.354;8.528;2023-06-14T00:21:11;22.90;36.80
4578;DHT22;2301;47.354;8.528;2023-06-14T00:23:38;22.80;36.40
4578;DHT22;2301;47.354;8.528;2023-06-14T00:26:05;22.80;37.10
4578;DHT22;2301;47.354;8.528;2023-06-14T00:28:32;22.80;37.60
4578;DHT22;2301;47.354;8.528;2023-06-14T00:31:00;22.70;37.00
4578;DHT22;2301;47.354;8.528;2023-06-14T00:33:27;22.70;37.40
4578;DHT22;2301;47.354;8.528;2023-06-14T00:35:54;22.70;36.90
4578;DHT22;2301;47.354;8.528;2023-06-14T00:38:21;22.70;36.00
4578;DHT22;2301;47.354;8.528;2023-06-14T00:40:48;22.70;35.90
4578;DHT22;2301;47.354;8.528;2023-06-14T00:43:15;22.70;36.50
4578;DHT22;2301;47.354;8.528;2023-06-14T00:45:42;22.70;36.90
4578;DHT22;2301;47.354;8.528;2023-06-14T00:48:11;22.70;36.50
4578;DHT22;2301;47.354;8.528;2023-06-14T00:50:38;22.60;36.00
4578;DHT22;2301;47.354;8.528;2023-06-14T00:53:06;22.60;37.00
4578;DHT22;2301;47.354;8.528;2023-06-14T00:55:33;22.60;36.90
4578;DHT22;2301;47.354;8.528;2023-06-14T00:58:00;22.60;36.20
4578;DHT22;2301;47.354;8.528;2023-06-14T01:00:27;22.50;36.10
4578;DHT22;2301;47.354;8.528;2023-06-14T01:02:54;22.60;37.20
4578;DHT22;2301;47.354;8.528;2023-06-14T01:05:24;22.60;37.40
4578;DHT22;2301;47.354;8.528;2023-06-14T01:08:03;22.60;37.40
4578;DHT22;2301;47.354;8.528;2023-06-14T01:10:37;22.50;35.60
4578;DHT22;2301;47.354;8.528;2023-06-14T01:13:10;22.50;36.00
4578;DHT22;2301;47.354;8.528;2023-06-14T01:15:41;22.40;34.50
4578;DHT22;2301;47.354;8.528;2023-06-14T01:18:09;22.30;34.60
4578;DHT22;2301;47.354;8.528;2023-06-14T01:20:45;22.30;35.90
4578;DHT22;2301;47.354;8.528;2023-06-14T01:23:16;22.30;34.70
4578;DHT22;2301;47.354;8.528;2023-06-14T01:25:43;22.20;35.70
4578;DHT22;2301;47.354;8.528;2023-06-14T01:28:11;22.20;36.50
4578;DHT22;2301;47.354;8.528;2023-06-14T01:30:40;22.20;36.60
4578;DHT22;2301;47.354;8.528;2023-06-14T01:33:11;22.20;36.50
4578;DHT22;2301;47.354;8.528;2023-06-14T01:35:39;22.20;37.10
4578;DHT22;2301;47.354;8.528;2023-06-14T01:38:06;22.20;36.40
4578;DHT22;2301;47.354;8.528;2023-06-14T01:40:35;22.10;36.70
4578;DHT22;2301;47.354;8.528;2023-06-14T01:43:03;22.10;36.00
4578;DHT22;2301;47.354;8.528;2023-06-14T01:45:31;22.00;36.20
4578;DHT22;2301;47.354;8.528;2023-06-14T01:47:59;22.00;36.00
4578;DHT22;2301;47.354;8.528;2023-06-14T01:50:28;22.00;36.70
4578;DHT22;2301;47.354;8.528;2023-06-14T01:52:56;22.00;37.30
4578;DHT22;2301;47.354;8.528;2023-06-14T01:55:23;22.10;37.40
4578;DHT22;2301;47.354;8.528;2023-06-14T01:57:51;22.10;37.00
4578;DHT22;2301;47.354;8.528;2023-06-14T02:00:18;22.10;37.20
4578;DHT22;2301;47.354;8.528;2023-06-14T02:02:47;22.10;37.20
4578;DHT22;2301;47.354;8.528;2023-06-14T02:05:14;22.20;37.90
4578;DHT22;2301;47.354;8.528;2023-06-14T02:07:44;22.20;37.30
4578;DHT22;2301;47.354;8.528;2023-06-14T02:10:12;22.20;37.30
4578;DHT22;2301;47.354;8.528;2023-06-14T02:12:39;22.20;37.20
4578;DHT22;2301;47.354;8.528;2023-06-14T02:15:08;22.20;37.60
4578;DHT22;2301;47.354;8.528;2023-06-14T02:17:42;22.20;37.60
4578;DHT22;2301;47.354;8.528;2023-06-14T02:20:09;22.20;37.30
4578;DHT22;2301;47.354;8.528;2023-06-14T02:22:36;22.20;37.30
4578;DHT22;2301;47.354;8.528;2023-06-14T02:25:04;22.20;37.00
4578;DHT22;2301;47.354;8.528;2023-06-14T02:27:32;22.10;37.00
4578;DHT22;2301;47.354;8.528;2023-06-14T02:29:59;22.10;37.40
4578;DHT22;2301;47.354;8.528;2023-06-14T02:32:27;22.10;37.40
4578;DHT22;2301;47.354;8.528;2023-06-14T02:34:54;22.10;37.30
4578;DHT22;2301;47.354;8.528;2023-06-14T02:37:21;22.10;37.20
4578;DHT22;2301;47.354;8.528;2023-06-14T02:39:48;22.00;37.20
4578;DHT22;2301;47.354;8.528;2023-06-14T02:42:15;22.00;37.20
4578;DHT22;2301;47.354;8.528;2023-06-14T02:44:42;21.90;36.40
4578;DHT22;2301;47.354;8.528;2023-06-14T02:47:08;21.80;36.80
4578;DHT22;2301;47.354;8.528;2023-06-14T02:49:37;21.70;35.80
4578;DHT22;2301;47.354;8.528;2023-06-14T02:52:04;21.50;34.80
4578;DHT22;2301;47.354;8.528;2023-06-14T02:54:31;21.30;34.70
4578;DHT22;2301;47.354;8.528;2023-06-14T02:56:58;21.10;34.70
4578;DHT22;2301;47.354;8.528;2023-06-14T02:59:25;20.90;34.80
4578;DHT22;2301;47.354;8.528;2023-06-14T03:01:52;20.70;35.10
4578;DHT22;2301;47.354;8.528;2023-06-14T03:04:19;20.50;35.20
4578;DHT22;2301;47.354;8.528;2023-06-14T03:06:47;20.40;35.50
4578;DHT22;2301;47.354;8.528;2023-06-14T03:09:16;20.30;35.40
4578;DHT22;2301;47.354;8.528;2023-06-14T03:11:42;20.10;35.50
4578;DHT22;2301;47.354;8.528;2023-06-14T03:14:09;20.00;35.60
4578;DHT22;2301;47.354;8.528;2023-06-14T03:16:36;19.90;35.80
4578;DHT22;2301;47.354;8.528;2023-06-14T03:19:03;19.80;35.90
4578;DHT22;2301;47.354;8.528;2023-06-14T03:21:30;19.70;36.10
4578;DHT22;2301;47.354;8.528;2023-06-14T03:23:59;19.60;36.40
4578;DHT22;2301;47.354;8.528;2023-06-14T03:26:27;19.60;36.50
4578;DHT22;2301;47.354;8.528;2023-06-14T03:28:56;19.50;37.20
4578;DHT22;2301;47.354;8.528;2023-06-14T03:31:23;19.40;36.90
4578;DHT22;2301;47.354;8.528;2023-06-14T03:33:50;19.30;37.20
4578;DHT22;2301;47.354;8.528;2023-06-14T03:36:17;19.20;37.40
4578;DHT22;2301;47.354;8.528;2023-06-14T03:38:44;19.20;37.70
4578;DHT22;2301;47.354;8.528;2023-06-14T03:41:14;19.10;37.70
4578;DHT22;2301;47.354;8.528;2023-06-14T03:43:44;19.00;37.60
4578;DHT22;2301;47.354;8.528;2023-06-14T03:46:12;19.00;37.70
4578;DHT22;2301;47.354;8.528;2023-06-14T03:48:39;18.90;37.70
4578;DHT22;2301;47.354;8.528;2023-06-14T03:51:06;18.80;37.60
4578;DHT22;2301;47.354;8.528;2023-06-14T03:53:33;18.80;37.90
4578;DHT22;2301;47.354;8.528;2023-06-14T03:56:01;18.80;38.10
4578;DHT22;2301;47.354;8.528;2023-06-14T03:58:29;18.70;38.10
4578;DHT22;2301;47.354;8.528;2023-06-14T04:00:56;18.70;38.00
4578;DHT22;2301;47.354;8.528;2023-06-14T04:03:23;18.70;38.30
4578;DHT22;2301;47.354;8.528;2023-06-14T04:05:50;18.70;38.50
4578;DHT22;2301;47.354;8.528;2023-06-14T04:08:22;18.60;38.50
4578;DHT22;2301;47.354;8.528;2023-06-14T04:10:50;18.60;39.20
4578;DHT22;2301;47.354;8.528;2023-06-14T04:13:17;18.60;38.60
4578;DHT22;2301;47.354;8.528;2023-06-14T04:15:45;18.50;38.70
4578;DHT22;2301;47.354;8.528;2023-06-14T04:18:13;18.50;38.80
4578;DHT22;2301;47.354;8.528;2023-06-14T04:20:40;18.50;38.80
4578;DHT22;2301;47.354;8.528;2023-06-14T04:23:13;18.50;38.90
4578;DHT22;2301;47.354;8.528;2023-06-14T04:25:40;18.50;39.10
4578;DHT22;2301;47.354;8.528;2023-06-14T04:28:10;18.50;39.90
4578;DHT22;2301;47.354;8.528;2023-06-14T04:30:37;18.40;39.10
4578;DHT22;2301;47.354;8.528;2023-06-14T04:33:07;18.40;39.00
4578;DHT22;2301;47.354;8.528;2023-06-14T04:35:35;18.40;39.80
4578;DHT22;2301;47.354;8.528;2023-06-14T04:38:03;18.40;39.30
4578;DHT22;2301;47.354;8.528;2023-06-14T04:40:30;18.40;39.30
4578;DHT22;2301;47.354;8.528;2023-06-14T04:42:59;18.30;40.00
4578;DHT22;2301;47.354;8.528;2023-06-14T04:45:26;18.30;39.40
4578;DHT22;2301;47.354;8.528;2023-06-14T04:47:58;18.30;39.40
4578;DHT22;2301;47.354;8.528;2023-06-14T04:50:27;18.20;39.40
4578;DHT22;2301;47.354;8.528;2023-06-14T04:52:55;18.20;39.50
4578;DHT22;2301;47.354;8.528;2023-06-14T04:55:22;18.20;39.60
4578;DHT22;2301;47.354;8.528;2023-06-14T04:57:50;18.20;39.70
4578;DHT22;2301;47.354;8.528;2023-06-14T05:00:19;18.20;39.60
4578;DHT22;2301;47.354;8.528;2023-06-14T05:02:46;18.20;39.70
4578;DHT22;2301;47.354;8.528;2023-06-14T05:05:16;18.20;39.70
4578;DHT22;2301;47.354;8.528;2023-06-14T05:07:44;18.30;39.70
4578;DHT22;2301;47.354;8.528;2023-06-14T05:10:12;18.30;39.70
4578;DHT22;2301;47.354;8.528;2023-06-14T05:12:38;18.30;39.80
4578;DHT22;2301;47.354;8.528;2023-06-14T05:15:07;18.30;39.80
4578;DHT22;2301;47.354;8.528;2023-06-14T05:17:34;18.30;39.70
4578;DHT22;2301;47.354;8.528;2023-06-14T05:20:02;18.30;39.90
4578;DHT22;2301;47.354;8.528;2023-06-14T05:22:30;18.30;40.00
4578;DHT22;2301;47.354;8.528;2023-06-14T05:24:59;18.40;40.00
4578;DHT22;2301;47.354;8.528;2023-06-14T05:27:25;18.40;40.10
4578;DHT22;2301;47.354;8.528;2023-06-14T05:29:52;18.40;40.00
4578;DHT22;2301;47.354;8.528;2023-06-14T05:32:21;18.40;40.00
4578;DHT22;2301;47.354;8.528;2023-06-14T05:34:48;18.40;40.10
4578;DHT22;2301;47.354;8.528;2023-06-14T05:37:15;18.50;40.00
4578;DHT22;2301;47.354;8.528;2023-06-14T05:39:42;18.50;40.00
4578;DHT22;2301;47.354;8.528;2023-06-14T05:42:11;18.50;40.10
4578;DHT22;2301;47.354;8.528;2023-06-14T05:44:38;18.60;40.20
4578;DHT22;2301;47.354;8.528;2023-06-14T05:47:05;18.60;40.00
4578;DHT22;2301;47.354;8.528;2023-06-14T05:49:32;18.60;40.00
4578;DHT22;2301;47.354;8.528;2023-06-14T05:51:58;18.60;40.20
4578;DHT22;2301;47.354;8.528;2023-06-14T05:54:25;18.70;40.20
4578;DHT22;2301;47.354;8.528;2023-06-14T05:56:54;18.70;40.20
4578;DHT22;2301;47.354;8.528;2023-06-14T05:59:22;18.70;40.30
4578;DHT22;2301;47.354;8.528;2023-06-14T06:01:49;18.70;40.30
4578;DHT22;2301;47.354;8.528;2023-06-14T06:04:16;18.80;40.30
4578;DHT22;2301;47.354;8.528;2023-06-14T06:06:43;18.80;40.50
4578;DHT22;2301;47.354;8.528;2023-06-14T06:09:10;18.80;40.30
4578;DHT22;2301;47.354;8.528;2023-06-14T06:11:37;18.90;40.40
4578;DHT22;2301;47.354;8.528;2023-06-14T06:14:04;18.90;40.30
4578;DHT22;2301;47.354;8.528;2023-06-14T06:16:32;19.00;40.60
4578;DHT22;2301;47.354;8.528;2023-06-14T06:18:59;19.10;40.80
4578;DHT22;2301;47.354;8.528;2023-06-14T06:21:26;19.10;40.60
4578;DHT22;2301;47.354;8.528;2023-06-14T06:23:53;19.10;40.50
4578;DHT22;2301;47.354;8.528;2023-06-14T06:26:22;19.20;40.50
4578;DHT22;2301;47.354;8.528;2023-06-14T06:28:49;19.30;40.50
4578;DHT22;2301;47.354;8.528;2023-06-14T06:31:15;19.30;40.30
4578;DHT22;2301;47.354;8.528;2023-06-14T06:33:44;19.40;41.10
4578;DHT22;2301;47.354;8.528;2023-06-14T06:36:11;19.50;40.70
4578;DHT22;2301;47.354;8.528;2023-06-14T06:38:37;19.60;40.90
4578;DHT22;2301;47.354;8.528;2023-06-14T06:41:04;19.70;40.80
4578;DHT22;2301;47.354;8.528;2023-06-14T06:43:31;19.90;40.80
4578;DHT22;2301;47.354;8.528;2023-06-14T06:45:58;20.00;40.60
4578;DHT22;2301;47.354;8.528;2023-06-14T06:48:25;20.20;40.60
4578;DHT22;2301;47.354;8.528;2023-06-14T06:50:53;20.40;40.70
4578;DHT22;2301;47.354;8.528;2023-06-14T06:53:20;20.60;40.20
4578;DHT22;2301;47.354;8.528;2023-06-14T06:55:48;20.70;39.40
4578;DHT22;2301;47.354;8.528;2023-06-14T06:58:15;20.90;39.50
4578;DHT22;2301;47.354;8.528;2023-06-14T07:00:44;21.00;39.40
4578;DHT22;2301;47.354;8.528;2023-06-14T07:03:13;21.20;38.90
4578;DHT22;2301;47.354;8.528;2023-06-14T07:05:42;21.30;38.90
4578;DHT22;2301;47.354;8.528;2023-06-14T07:08:10;21.50;39.10
4578;DHT22;2301;47.354;8.528;2023-06-14T07:10:37;21.70;39.40
4578;DHT22;2301;47.354;8.528;2023-06-14T07:13:03;21.90;39.20
4578;DHT22;2301;47.354;8.528;2023-06-14T07:15:30;22.00;38.80
4578;DHT22;2301;47.354;8.528;2023-06-14T07:17:57;22.20;39.10
4578;DHT22;2301;47.354;8.528;2023-06-14T07:20:25;22.40;40.30
4578;DHT22;2301;47.354;8.528;2023-06-14T07:22:52;22.70;39.90
4578;DHT22;2301;47.354;8.528;2023-06-14T07:25:20;22.80;38.60
4578;DHT22;2301;47.354;8.528;2023-06-14T07:27:47;22.90;37.90
4578;DHT22;2301;47.354;8.528;2023-06-14T07:30:14;22.90;37.50
4578;DHT22;2301;47.354;8.528;2023-06-14T07:32:41;23.00;37.60
4578;DHT22;2301;47.354;8.528;2023-06-14T07:35:08;23.10;37.40
4578;DHT22;2301;47.354;8.528;2023-06-14T07:37:35;23.20;36.40
4578;DHT22;2301;47.354;8.528;2023-06-14T07:40:03;23.30;35.90
4578;DHT22;2301;47.354;8.528;2023-06-14T07:42:34;23.40;35.90
4578;DHT22;2301;47.354;8.528;2023-06-14T07:45:01;23.50;36.20
4578;DHT22;2301;47.354;8.528;2023-06-14T07:47:28;23.60;35.60
4578;DHT22;2301;47.354;8.528;2023-06-14T07:49:55;23.80;35.20
4578;DHT22;2301;47.354;8.528;2023-06-14T07:52:22;23.90;34.10
4578;DHT22;2301;47.354;8.528;2023-06-14T07:54:49;24.00;34.50
4578;DHT22;2301;47.354;8.528;2023-06-14T07:57:16;24.20;35.00
4578;DHT22;2301;47.354;8.528;2023-06-14T07:59:46;24.30;34.40
4578;DHT22;2301;47.354;8.528;2023-06-14T08:02:13;24.40;33.80
4578;DHT22;2301;47.354;8.528;2023-06-14T08:04:41;24.50;33.80
4578;DHT22;2301;47.354;8.528;2023-06-14T08:07:08;24.70;33.90
4578;DHT22;2301;47.354;8.528;2023-06-14T08:09:35;24.90;33.80
4578;DHT22;2301;47.354;8.528;2023-06-14T08:12:04;25.00;33.50
4578;DHT22;2301;47.354;8.528;2023-06-14T08:14:32;25.00;33.30
4578;DHT22;2301;47.354;8.528;2023-06-14T08:17:01;25.10;33.20
4578;DHT22;2301;47.354;8.528;2023-06-14T08:19:28;25.30;33.30
4578;DHT22;2301;47.354;8.528;2023-06-14T08:21:55;25.50;33.00
4578;DHT22;2301;47.354;8.528;2023-06-14T08:24:22;25.80;32.70
4578;DHT22;2301;47.354;8.528;2023-06-14T08:26:50;26.00;32.20
4578;DHT22;2301;47.354;8.528;2023-06-14T08:29:17;26.30;31.80
4578;DHT22;2301;47.354;8.528;2023-06-14T08:31:44;26.50;31.60
4578;DHT22;2301;47.354;8.528;2023-06-14T08:34:12;26.60;30.50
4578;DHT22;2301;47.354;8.528;2023-06-14T08:36:39;26.80;30.40
4578;DHT22;2301;47.354;8.528;2023-06-14T08:39:06;27.00;30.80
4578;DHT22;2301;47.354;8.528;2023-06-14T08:41:34;27.20;30.90
4578;DHT22;2301;47.354;8.528;2023-06-14T08:44:02;27.40;30.50
4578;DHT22;2301;47.354;8.528;2023-06-14T08:46:32;27.60;30.00
4578;DHT22;2301;47.354;8.528;2023-06-14T08:49:01;27.70;29.90
4578;DHT22;2301;47.354;8.528;2023-06-14T08:51:31;27.80;29.30
4578;DHT22;2301;47.354;8.528;2023-06-14T08:54:00;27.90;29.20
4578;DHT22;2301;47.354;8.528;2023-06-14T08:56:28;27.80;29.10
4578;DHT22;2301;47.354;8.528;2023-06-14T08:58:56;28.00;28.80
4578;DHT22;2301;47.354;8.528;2023-06-14T09:01:23;28.20;29.40
4578;DHT22;2301;47.354;8.528;2023-06-14T09:03:50;28.30;29.00
4578;DHT22;2301;47.354;8.528;2023-06-14T09:06:17;28.50;29.40
4578;DHT22;2301;47.354;8.528;2023-06-14T09:08:50;28.80;29.10
4578;DHT22;2301;47.354;8.528;2023-06-14T09:11:18;28.90;28.70
4578;DHT22;2301;47.354;8.528;2023-06-14T09:13:45;29.10;28.10
4578;DHT22;2301;47.354;8.528;2023-06-14T09:16:13;29.30;28.30
4578;DHT22;2301;47.354;8.528;2023-06-14T09:18:45;29.40;27.90
4578;DHT22;2301;47.354;8.528;2023-06-14T09:21:14;29.60;27.90
4578;DHT22;2301;47.354;8.528;2023-06-14T09:23:43;29.80;27.70
4578;DHT22;2301;47.354;8.528;2023-06-14T09:26:12;29.90;27.20
4578;DHT22;2301;47.354;8.528;2023-06-14T09:28:41;30.00;27.20
4578;DHT22;2301;47.354;8.528;2023-06-14T09:31:10;30.20;27.40
4578;DHT22;2301;47.354;8.528;2023-06-14T09:33:37;30.40;27.10
4578;DHT22;2301;47.354;8.528;2023-06-14T09:36:04;30.50;26.80
4578;DHT22;2301;47.354;8.528;2023-06-14T09:38:31;30.40;26.00
4578;DHT22;2301;47.354;8.528;2023-06-14T09:41:03;30.60;26.60
4578;DHT22;2301;47.354;8.528;2023-06-14T09:43:33;30.80;26.70
4578;DHT22;2301;47.354;8.528;2023-06-14T09:46:00;30.80;26.30
4578;DHT22;2301;47.354;8.528;2023-06-14T09:48:27;30.90;26.50
4578;DHT22;2301;47.354;8.528;2023-06-14T09:50:55;30.90;26.30
4578;DHT22;2301;47.354;8.528;2023-06-14T09:53:25;31.10;26.30
4578;DHT22;2301;47.354;8.528;2023-06-14T09:55:52;31.10;26.20
4578;DHT22;2301;47.354;8.528;2023-06-14T09:58:23;31.10;26.00
4578;DHT22;2301;47.354;8.528;2023-06-14T10:00:54;31.20;26.00
4578;DHT22;2301;47.354;8.528;2023-06-14T10:03:25;31.30;25.90
4578;DHT22;2301;47.354;8.528;2023-06-14T10:05:55;31.40;26.00
4578;DHT22;2301;47.354;8.528;2023-06-14T10:08:27;31.50;25.90
4578;DHT22;2301;47.354;8.528;2023-06-14T10:10:58;31.60;26.00
4578;DHT22;2301;47.354;8.528;2023-06-14T10:13:26;31.70;25.60
4578;DHT22;2301;47.354;8.528;2023-06-14T10:16:00;31.80;25.40
4578;DHT22;2301;47.354;8.528;2023-06-14T10:18:35;32.00;25.50
4578;DHT22;2301;47.354;8.528;2023-06-14T10:21:16;32.20;25.00
4578;DHT22;2301;47.354;8.528;2023-06-14T10:23:46;32.60;25.00
4578;DHT22;2301;47.354;8.528;2023-06-14T10:26:21;32.60;24.80
4578;DHT22;2301;47.354;8.528;2023-06-14T10:28:57;32.70;25.00
4578;DHT22;2301;47.354;8.528;2023-06-14T10:34:25;32.60;24.60
4578;DHT22;2301;47.354;8.528;2023-06-14T10:37:03;32.60;24.50
4578;DHT22;2301;47.354;8.528;2023-06-14T10:39:31;32.60;24.40
4578;DHT22;2301;47.354;8.528;2023-06-14T10:42:02;32.60;24.30
4578;DHT22;2301;47.354;8.528;2023-06-14T10:44:41;32.60;24.40
4578;DHT22;2301;47.354;8.528;2023-06-14T10:47:10;32.70;24.30
4578;DHT22;2301;47.354;8.528;2023-06-14T10:49:40;32.90;24.20
4578;DHT22;2301;47.354;8.528;2023-06-14T10:52:09;32.90;24.00
4578;DHT22;2301;47.354;8.528;2023-06-14T10:54:56;32.90;23.50
4578;DHT22;2301;47.354;8.528;2023-06-14T10:57:23;33.10;23.70
4578;DHT22;2301;47.354;8.528;2023-06-14T10:59:50;33.10;23.80
4578;DHT22;2301;47.354;8.528;2023-06-14T11:02:30;32.90;23.50
4578;DHT22;2301;47.354;8.528;2023-06-14T11:05:08;33.10;23.40
4578;DHT22;2301;47.354;8.528;2023-06-14T11:07:48;33.10;23.00
4578;DHT22;2301;47.354;8.528;2023-06-14T11:10:26;33.10;23.50
4578;DHT22;2301;47.354;8.528;2023-06-14T11:12:59;33.00;23.30
4578;DHT22;2301;47.354;8.528;2023-06-14T11:15:28;33.00;23.30
4578;DHT22;2301;47.354;8.528;2023-06-14T11:17:56;33.00;22.70
4578;DHT22;2301;47.354;8.528;2023-06-14T11:20:27;33.10;23.00
4578;DHT22;2301;47.354;8.528;2023-06-14T11:22:54;33.10;23.60
4578;DHT22;2301;47.354;8.528;2023-06-14T11:25:21;33.20;23.20
4578;DHT22;2301;47.354;8.528;2023-06-14T11:27:49;33.20;23.60
4578;DHT22;2301;47.354;8.528;2023-06-14T11:30:17;33.20;23.60
4578;DHT22;2301;47.354;8.528;2023-06-14T11:32:46;33.10;23.10
4578;DHT22;2301;47.354;8.528;2023-06-14T11:35:14;33.10;23.50
4578;DHT22;2301;47.354;8.528;2023-06-14T11:37:43;33.10;22.70
4578;DHT22;2301;47.354;8.528;2023-06-14T11:40:11;33.10;23.10
4578;DHT22;2301;47.354;8.528;2023-06-14T11:42:41;33.00;23.30
4578;DHT22;2301;47.354;8.528;2023-06-14T11:45:09;32.90;22.80
4578;DHT22;2301;47.354;8.528;2023-06-14T11:47:38;32.90;22.80
4578;DHT22;2301;47.354;8.528;2023-06-14T11:50:06;32.70;23.20
4578;DHT22;2301;47.354;8.528;2023-06-14T11:52:36;32.60;23.10
4578;DHT22;2301;47.354;8.528;2023-06-14T11:55:06;32.60;22.80
4578;DHT22;2301;47.354;8.528;2023-06-14T11:57:34;32.60;22.50
4578;DHT22;2301;47.354;8.528;2023-06-14T12:00:03;32.50;22.60
4578;DHT22;2301;47.354;8.528;2023-06-14T12:02:33;32.50;22.90
4578;DHT22;2301;47.354;8.528;2023-06-14T12:05:05;32.60;22.90
4578;DHT22;2301;47.354;8.528;2023-06-14T12:07:33;32.60;23.00
4578;DHT22;2301;47.354;8.528;2023-06-14T12:10:05;32.60;23.40
4578;DHT22;2301;47.354;8.528;2023-06-14T12:12:35;32.50;23.20
4578;DHT22;2301;47.354;8.528;2023-06-14T12:15:03;32.40;23.70
4578;DHT22;2301;47.354;8.528;2023-06-14T12:17:32;32.40;23.80
4578;DHT22;2301;47.354;8.528;2023-06-14T12:20:05;32.50;23.80
4578;DHT22;2301;47.354;8.528;2023-06-14T12:22:36;32.40;23.50
4578;DHT22;2301;47.354;8.528;2023-06-14T12:25:05;32.40;23.70
4578;DHT22;2301;47.354;8.528;2023-06-14T12:27:35;32.40;24.10
4578;DHT22;2301;47.354;8.528;2023-06-14T12:30:03;32.40;23.70
4578;DHT22;2301;47.354;8.528;2023-06-14T12:32:30;32.40;23.80
4578;DHT22;2301;47.354;8.528;2023-06-14T12:34:57;32.40;23.70
4578;DHT22;2301;47.354;8.528;2023-06-14T12:37:24;32.20;23.80
4578;DHT22;2301;47.354;8.528;2023-06-14T12:39:51;32.10;24.10
4578;DHT22;2301;47.354;8.528;2023-06-14T12:42:19;32.00;23.90
4578;DHT22;2301;47.354;8.528;2023-06-14T12:44:46;32.00;24.10
4578;DHT22;2301;47.354;8.528;2023-06-14T12:47:13;32.00;24.50
4578;DHT22;2301;47.354;8.528;2023-06-14T12:49:40;32.00;24.80
4578;DHT22;2301;47.354;8.528;2023-06-14T12:52:08;32.00;24.50
4578;DHT22;2301;47.354;8.528;2023-06-14T12:54:35;31.90;25.00
4578;DHT22;2301;47.354;8.528;2023-06-14T12:57:02;31.90;24.80
4578;DHT22;2301;47.354;8.528;2023-06-14T12:59:31;31.80;24.80
4578;DHT22;2301;47.354;8.528;2023-06-14T13:02:10;31.90;24.80
4578;DHT22;2301;47.354;8.528;2023-06-14T13:04:37;31.90;24.50
4578;DHT22;2301;47.354;8.528;2023-06-14T13:07:04;32.00;24.90
4578;DHT22;2301;47.354;8.528;2023-06-14T13:09:32;31.90;24.10
4578;DHT22;2301;47.354;8.528;2023-06-14T13:11:58;32.00;24.30
4578;DHT22;2301;47.354;8.528;2023-06-14T13:14:25;31.80;24.30
4578;DHT22;2301;47.354;8.528;2023-06-14T13:16:54;31.80;24.30
4578;DHT22;2301;47.354;8.528;2023-06-14T13:19:21;31.80;24.50
4578;DHT22;2301;47.354;8.528;2023-06-14T13:21:48;31.80;24.80
4578;DHT22;2301;47.354;8.528;2023-06-14T13:24:15;31.80;24.30
4578;DHT22;2301;47.354;8.528;2023-06-14T13:26:42;31.70;24.40
4578;DHT22;2301;47.354;8.528;2023-06-14T13:29:09;31.60;24.10
4578;DHT22;2301;47.354;8.528;2023-06-14T13:31:36;31.70;24.10
4578;DHT22;2301;47.354;8.528;2023-06-14T13:34:05;31.60;24.30
4578;DHT22;2301;47.354;8.528;2023-06-14T13:36:33;31.60;24.60
4578;DHT22;2301;47.354;8.528;2023-06-14T13:39:02;31.50;24.30
4578;DHT22;2301;47.354;8.528;2023-06-14T13:41:31;31.50;24.40
4578;DHT22;2301;47.354;8.528;2023-06-14T13:44:01;31.60;24.80
4578;DHT22;2301;47.354;8.528;2023-06-14T13:46:29;31.50;24.70
4578;DHT22;2301;47.354;8.528;2023-06-14T13:48:56;31.50;24.80
4578;DHT22;2301;47.354;8.528;2023-06-14T13:51:25;31.40;24.70
4578;DHT22;2301;47.354;8.528;2023-06-14T13:53:53;31.40;24.30
4578;DHT22;2301;47.354;8.528;2023-06-14T13:56:21;31.30;24.80
4578;DHT22;2301;47.354;8.528;2023-06-14T13:58:49;31.30;25.00
4578;DHT22;2301;47.354;8.528;2023-06-14T14:01:16;31.30;24.80
4578;DHT22;2301;47.354;8.528;2023-06-14T14:03:45;31.20;24.80
4578;DHT22;2301;47.354;8.528;2023-06-14T14:06:12;31.10;25.20
4578;DHT22;2301;47.354;8.528;2023-06-14T14:08:41;31.10;25.30
4578;DHT22;2301;47.354;8.528;2023-06-14T14:11:08;31.10;25.30
4578;DHT22;2301;47.354;8.528;2023-06-14T14:13:35;31.10;25.40
4578;DHT22;2301;47.354;8.528;2023-06-14T14:16:04;31.20;25.70
4578;DHT22;2301;47.354;8.528;2023-06-14T14:18:31;31.00;25.40
4578;DHT22;2301;47.354;8.528;2023-06-14T14:20:59;30.90;25.60
4578;DHT22;2301;47.354;8.528;2023-06-14T14:23:27;31.00;25.30
4578;DHT22;2301;47.354;8.528;2023-06-14T14:25:56;31.00;24.70
4578;DHT22;2301;47.354;8.528;2023-06-14T14:28:23;31.00;24.70
4578;DHT22;2301;47.354;8.528;2023-06-14T14:30:51;30.80;24.20
4578;DHT22;2301;47.354;8.528;2023-06-14T14:33:19;30.80;24.80
4578;DHT22;2301;47.354;8.528;2023-06-14T14:35:46;30.80;25.00
4578;DHT22;2301;47.354;8.528;2023-06-14T14:38:13;30.80;25.20
4578;DHT22;2301;47.354;8.528;2023-06-14T14:40:41;30.90;25.30
4578;DHT22;2301;47.354;8.528;2023-06-14T14:43:09;30.90;25.00
4578;DHT22;2301;47.354;8.528;2023-06-14T14:45:36;30.80;25.10
4578;DHT22;2301;47.354;8.528;2023-06-14T14:48:03;30.90;25.00
4578;DHT22;2301;47.354;8.528;2023-06-14T14:50:31;30.90;24.80
4578;DHT22;2301;47.354;8.528;2023-06-14T14:52:58;30.80;24.30
4578;DHT22;2301;47.354;8.528;2023-06-14T14:55:25;30.90;24.60
4578;DHT22;2301;47.354;8.528;2023-06-14T14:57:51;30.80;24.80
4578;DHT22;2301;47.354;8.528;2023-06-14T15:00:20;30.90;25.00
4578;DHT22;2301;47.354;8.528;2023-06-14T15:02:47;30.90;25.50
4578;DHT22;2301;47.354;8.528;2023-06-14T15:05:14;30.80;24.30
4578;DHT22;2301;47.354;8.528;2023-06-14T15:07:42;30.80;24.50
4578;DHT22;2301;47.354;8.528;2023-06-14T15:10:10;30.90;24.70
4578;DHT22;2301;47.354;8.528;2023-06-14T15:12:37;30.80;24.80
4578;DHT22;2301;47.354;8.528;2023-06-14T15:15:04;30.80;25.20
4578;DHT22;2301;47.354;8.528;2023-06-14T15:17:33;30.90;25.80
4578;DHT22;2301;47.354;8.528;2023-06-14T15:20:01;30.80;25.60
4578;DHT22;2301;47.354;8.528;2023-06-14T15:22:33;30.70;25.30
4578;DHT22;2301;47.354;8.528;2023-06-14T15:25:04;30.60;25.20
4578;DHT22;2301;47.354;8.528;2023-06-14T15:27:31;30.60;25.50
4578;DHT22;2301;47.354;8.528;2023-06-14T15:29:58;30.60;25.40
4578;DHT22;2301;47.354;8.528;2023-06-14T15:32:25;30.60;26.00
4578;DHT22;2301;47.354;8.528;2023-06-14T15:34:53;30.50;26.30
4578;DHT22;2301;47.354;8.528;2023-06-14T15:37:22;30.50;25.80
4578;DHT22;2301;47.354;8.528;2023-06-14T15:39:52;30.40;25.80
4578;DHT22;2301;47.354;8.528;2023-06-14T15:42:20;30.40;26.00
4578;DHT22;2301;47.354;8.528;2023-06-14T15:44:47;30.40;26.20
4578;DHT22;2301;47.354;8.528;2023-06-14T15:47:14;30.40;26.30
4578;DHT22;2301;47.354;8.528;2023-06-14T15:49:41;30.40;26.30
4578;DHT22;2301;47.354;8.528;2023-06-14T15:52:09;30.40;26.00
4578;DHT22;2301;47.354;8.528;2023-06-14T15:54:36;30.40;26.40
4578;DHT22;2301;47.354;8.528;2023-06-14T15:57:03;30.40;26.40
4578;DHT22;2301;47.354;8.528;2023-06-14T15:59:30;30.40;26.60
4578;DHT22;2301;47.354;8.528;2023-06-14T16:01:57;30.30;26.50
4578;DHT22;2301;47.354;8.528;2023-06-14T16:04:23;30.30;26.60
4578;DHT22;2301;47.354;8.528;2023-06-14T16:06:50;30.30;26.50
4578;DHT22;2301;47.354;8.528;2023-06-14T16:09:19;30.30;26.60
4578;DHT22;2301;47.354;8.528;2023-06-14T16:11:46;30.30;26.20
4578;DHT22;2301;47.354;8.528;2023-06-14T16:14:13;30.20;26.20